createdAt,value
2023-04-13T00:00:53.607Z,98.68
2023-04-13T00:03:22.727Z,98.48
2023-04-13T00:05:53.477Z,98.58
2023-04-13T00:08:24.785Z,98.57
2023-04-13T00:10:57.568Z,98.56
2023-04-13T00:13:25.737Z,98.66
2023-04-13T00:15:57.186Z,99.42
2023-04-13T00:18:25.667Z,99.49
2023-04-13T00:20:54.697Z,99.59
2023-04-13T00:23:23.148Z,99.80
2023-04-13T00:25:56.644Z,99.56
2023-04-13T00:28:25.939Z,99.60
2023-04-13T00:30:55.223Z,99.00
2023-04-13T00:33:24.745Z,98.94
2023-04-13T00:35:53.230Z,98.41
2023-04-13T00:38:24.344Z,98.25
2023-04-13T00:40:55.980Z,97.82
2023-04-13T00:43:24.309Z,97.57
2023-04-13T00:45:53.328Z,97.33
2023-04-13T00:48:27.409Z,97.12
2023-04-13T00:50:56.198Z,97.23
2023-04-13T00:53:25.980Z,96.99
2023-04-13T00:56:00.429Z,96.83
2023-04-13T00:58:32.908Z,96.62
2023-04-13T01:01:01.184Z,96.67
2023-04-13T01:03:32.249Z,96.50
2023-04-13T01:06:18.179Z,96.21
2023-04-13T01:09:09.436Z,95.86
2023-04-13T01:12:04.447Z,95.70
2023-04-13T01:14:48.125Z,95.19
2023-04-13T01:17:23.905Z,94.98
2023-04-13T01:20:01.660Z,94.77
2023-04-13T01:22:34.089Z,94.60
2023-04-13T01:25:47.832Z,94.50
2023-04-13T01:28:19.802Z,93.86
2023-04-13T01:30:50.042Z,93.65
2023-04-13T01:33:19.624Z,93.61
2023-04-13T01:35:55.476Z,93.90
2023-04-13T01:38:25.630Z,94.09
2023-04-13T01:40:56.635Z,94.18
2023-04-13T01:43:26.446Z,94.04
2023-04-13T01:46:08.294Z,93.76
2023-04-13T01:48:52.201Z,93.65
2023-04-13T01:51:41.860Z,94.05
2023-04-13T01:54:14.166Z,94.04
2023-04-13T01:56:46.101Z,94.10
2023-04-13T01:59:16.896Z,94.11
2023-04-13T02:01:45.681Z,94.50
2023-04-13T02:04:16.013Z,94.54
2023-04-13T02:06:48.620Z,94.44
2023-04-13T02:09:18.140Z,94.27
2023-04-13T02:11:46.407Z,94.51
2023-04-13T02:14:17.337Z,94.53
2023-04-13T02:16:45.849Z,94.43
2023-04-13T02:19:15.834Z,94.83
2023-04-13T02:21:44.221Z,94.55
2023-04-13T02:24:12.794Z,94.50
2023-04-13T02:26:43.859Z,94.43
2023-04-13T02:29:12.118Z,94.49
2023-04-13T02:31:54.489Z,94.61
2023-04-13T02:34:23.226Z,94.99
2023-04-13T02:36:51.789Z,95.09
2023-04-13T02:39:27.237Z,95.26
2023-04-13T02:41:58.172Z,95.41
2023-04-13T02:44:27.389Z,95.75
2023-04-13T02:46:59.032Z,95.54
2023-04-13T02:49:27.812Z,95.75
2023-04-13T02:52:08.194Z,95.54
2023-04-13T02:54:55.082Z,95.92
2023-04-13T02:57:26.665Z,96.21
2023-04-13T02:59:56.649Z,96.29
2023-04-13T03:02:30.327Z,96.50
2023-04-13T03:04:59.618Z,96.38
2023-04-13T03:07:29.566Z,96.15
2023-04-13T03:10:05.933Z,96.54
2023-04-13T03:12:37.075Z,96.48
2023-04-13T03:15:15.169Z,96.24
2023-04-13T03:17:44.484Z,96.79
2023-04-13T03:20:17.289Z,97.32
2023-04-13T03:22:53.946Z,97.23
2023-04-13T03:25:22.625Z,96.87
2023-04-13T03:27:51.935Z,96.73
2023-04-13T03:30:21.736Z,96.91
2023-04-13T03:33:14.314Z,96.74
2023-04-13T03:35:44.627Z,96.88
2023-04-13T03:38:20.275Z,96.61
2023-04-13T03:40:49.635Z,96.22
2023-04-13T03:43:19.253Z,96.29
2023-04-13T03:45:54.775Z,96.08
2023-04-13T03:48:23.606Z,96.07
2023-04-13T03:50:52.293Z,96.63
2023-04-13T03:53:25.280Z,96.93
2023-04-13T03:55:56.110Z,97.02
2023-04-13T03:58:24.818Z,96.69
2023-04-13T04:00:54.401Z,96.99
2023-04-13T04:03:27.824Z,97.27
2023-04-13T04:05:59.043Z,97.03
2023-04-13T04:08:29.781Z,96.46
2023-04-13T04:11:01.151Z,96.10
2023-04-13T04:13:30.811Z,96.10
2023-04-13T04:16:04.902Z,96.29
2023-04-13T04:18:35.582Z,96.85
2023-04-13T04:21:04.575Z,97.13
2023-04-13T04:23:34.998Z,97.06
2023-04-13T04:26:06.696Z,96.75
2023-04-13T04:28:42.419Z,96.59
2023-04-13T04:31:14.513Z,96.60
2023-04-13T04:33:47.558Z,96.68
2023-04-13T04:36:16.980Z,96.47
2023-04-13T04:39:02.790Z,96.61
2023-04-13T04:41:38.086Z,96.40
2023-04-13T04:44:08.442Z,96.16
2023-04-13T04:46:41.952Z,95.50
2023-04-13T04:49:14.207Z,95.42
2023-04-13T04:51:42.895Z,95.65
2023-04-13T04:54:17.168Z,95.32
2023-04-13T04:56:50.682Z,94.98
2023-04-13T04:59:22.645Z,95.26
2023-04-13T05:01:57.999Z,95.21
2023-04-13T05:04:26.902Z,94.98
2023-04-13T05:06:55.875Z,94.95
2023-04-13T05:09:26.924Z,95.11
2023-04-13T05:11:58.542Z,95.12
2023-04-13T05:14:27.047Z,94.74
2023-04-13T05:16:55.846Z,94.58
2023-04-13T05:19:28.045Z,93.96
2023-04-13T05:22:03.072Z,94.03
2023-04-13T05:24:39.309Z,93.51
2023-04-13T05:27:11.984Z,93.44
2023-04-13T05:29:40.584Z,93.67
2023-04-13T05:32:09.766Z,93.57
2023-04-13T05:34:38.653Z,93.59
2023-04-13T05:37:12.564Z,93.20
2023-04-13T05:39:42.787Z,92.35
2023-04-13T05:42:11.982Z,92.94
2023-04-13T05:44:45.271Z,92.97
2023-04-13T05:47:14.825Z,93.00
2023-04-13T05:49:45.513Z,92.62
2023-04-13T05:52:14.520Z,91.92
2023-04-13T05:54:48.126Z,91.74
2023-04-13T05:57:17.303Z,91.61
2023-04-13T05:59:48.140Z,91.48
2023-04-13T06:02:21.053Z,90.88
2023-04-13T06:04:54.070Z,91.10
2023-04-13T06:07:23.206Z,90.93
2023-04-13T06:09:51.891Z,90.87
2023-04-13T06:12:22.312Z,90.43
2023-04-13T06:14:51.106Z,89.06
2023-04-13T06:17:19.824Z,88.69
2023-04-13T06:19:48.486Z,88.89
2023-04-13T06:22:17.069Z,88.16
2023-04-13T06:24:45.746Z,87.51
2023-04-13T06:27:14.376Z,88.00
2023-04-13T06:29:47.054Z,87.87
2023-04-13T06:32:16.028Z,87.69
2023-04-13T06:34:46.014Z,87.72
2023-04-13T06:37:15.007Z,87.07
2023-04-13T06:39:48.733Z,86.53
2023-04-13T06:42:18.729Z,85.89
2023-04-13T06:45:01.971Z,85.95
2023-04-13T06:47:36.324Z,85.88
2023-04-13T06:50:07.367Z,84.86
2023-04-13T06:52:38.271Z,85.36
2023-04-13T06:55:07.534Z,84.87
2023-04-13T06:57:39.930Z,83.40
2023-04-13T07:00:26.056Z,84.47
2023-04-13T07:02:58.450Z,84.72
2023-04-13T07:05:27.295Z,84.15
2023-04-13T07:07:58.643Z,84.22
2023-04-13T07:10:27.927Z,84.18
2023-04-13T07:12:57.478Z,84.38
2023-04-13T07:15:27.244Z,84.23
2023-04-13T07:17:56.303Z,84.05
2023-04-13T07:20:24.728Z,84.26
2023-04-13T07:22:54.121Z,84.72
2023-04-13T07:25:22.738Z,84.65
2023-04-13T07:27:52.931Z,85.34
2023-04-13T07:30:22.742Z,84.95
2023-04-13T07:32:52.708Z,85.24
2023-04-13T07:35:22.580Z,85.28
2023-04-13T07:37:53.072Z,84.92
2023-04-13T07:40:22.513Z,85.56
2023-04-13T07:42:53.309Z,85.54
2023-04-13T07:45:31.455Z,85.34
2023-04-13T07:48:01.107Z,84.74
2023-04-13T07:50:30.553Z,85.45
2023-04-13T07:52:59.543Z,86.22
2023-04-13T07:55:28.860Z,86.14
2023-04-13T07:58:00.152Z,85.56
2023-04-13T08:00:28.878Z,85.49
2023-04-13T08:02:59.109Z,85.29
2023-04-13T08:05:32.053Z,85.45
2023-04-13T08:08:02.423Z,85.57
2023-04-13T08:10:31.518Z,85.38
2023-04-13T08:13:01.922Z,85.60
2023-04-13T08:15:34.123Z,85.68
2023-04-13T08:18:04.160Z,85.83
2023-04-13T08:20:35.773Z,86.04
2023-04-13T08:23:07.350Z,85.79
2023-04-13T08:25:44.939Z,86.32
2023-04-13T08:28:13.404Z,86.21
2023-04-13T08:30:44.247Z,86.10
2023-04-13T08:33:14.571Z,86.29
2023-04-13T08:35:42.885Z,86.03
2023-04-13T08:38:14.908Z,86.01
2023-04-13T08:40:49.568Z,86.44
2023-04-13T08:43:20.294Z,86.48
2023-04-13T08:45:51.953Z,86.12
2023-04-13T08:48:23.471Z,85.88
2023-04-13T08:50:52.665Z,85.92
2023-04-13T08:53:24.009Z,85.72
2023-04-13T08:55:54.951Z,85.71
2023-04-13T08:58:24.762Z,86.06
2023-04-13T09:00:56.851Z,85.91
2023-04-13T09:03:30.006Z,85.76
2023-04-13T09:06:01.955Z,86.19
2023-04-13T09:08:36.002Z,85.74
2023-04-13T09:11:07.133Z,85.94
2023-04-13T09:13:36.793Z,85.80
2023-04-13T09:16:06.560Z,85.67
2023-04-13T09:18:57.477Z,86.29
2023-04-13T09:21:37.630Z,86.01
2023-04-13T09:24:06.373Z,85.44
2023-04-13T09:26:47.696Z,85.24
2023-04-13T09:29:22.208Z,85.60
2023-04-13T09:31:51.032Z,86.19
2023-04-13T09:34:29.005Z,86.47
2023-04-13T09:37:01.219Z,86.15
2023-04-13T09:39:31.192Z,85.75
2023-04-13T09:42:12.271Z,85.49
2023-04-13T09:44:40.951Z,85.37
2023-04-13T09:47:09.557Z,85.52
2023-04-13T09:49:38.798Z,85.64
2023-04-13T09:52:20.620Z,84.46
2023-04-13T09:54:54.690Z,84.94
2023-04-13T09:57:27.887Z,85.29
2023-04-13T09:59:57.961Z,85.44
2023-04-13T10:02:28.143Z,85.06
2023-04-13T10:04:57.020Z,84.69
2023-04-13T10:07:30.195Z,84.91
2023-04-13T10:10:00.984Z,84.69
2023-04-13T10:12:30.500Z,84.76
2023-04-13T10:15:02.969Z,84.90
2023-04-13T10:17:40.035Z,84.95
2023-04-13T10:20:11.321Z,84.79
2023-04-13T10:22:41.920Z,85.03
2023-04-13T10:25:29.030Z,85.12
2023-04-13T10:28:00.946Z,85.03
2023-04-13T10:30:30.203Z,85.01
2023-04-13T10:33:07.440Z,85.04
2023-04-13T10:35:43.480Z,84.38
2023-04-13T10:38:16.322Z,84.36
2023-04-13T10:40:46.527Z,84.58
2023-04-13T10:43:31.882Z,84.96
2023-04-13T10:46:08.389Z,84.63
2023-04-13T10:48:37.596Z,84.97
2023-04-13T10:51:07.034Z,85.34
2023-04-13T10:53:37.023Z,85.56
2023-04-13T10:56:16.133Z,85.06
2023-04-13T10:58:51.714Z,85.36
2023-04-13T11:01:21.089Z,85.39
2023-04-13T11:04:03.836Z,85.38
2023-04-13T11:06:39.474Z,85.60
2023-04-13T11:09:12.954Z,85.39
2023-04-13T11:11:43.884Z,85.23
2023-04-13T11:14:21.571Z,84.73
2023-04-13T11:16:50.901Z,85.27
2023-04-13T11:19:20.082Z,85.93
2023-04-13T11:21:55.370Z,86.05
2023-04-13T11:24:26.772Z,86.04
2023-04-13T11:26:55.151Z,86.24
2023-04-13T11:29:25.270Z,86.51
2023-04-13T11:31:53.886Z,86.39
2023-04-13T11:34:26.661Z,86.32
2023-04-13T11:37:01.399Z,86.00
2023-04-13T11:39:32.502Z,86.08
2023-04-13T11:42:10.001Z,86.27
2023-04-13T11:44:39.532Z,86.70
2023-04-13T11:47:11.077Z,86.70
2023-04-13T11:49:48.305Z,86.56
2023-04-13T11:52:17.763Z,86.97
2023-04-13T11:54:46.543Z,86.80
2023-04-13T11:57:16.036Z,86.53
2023-04-13T11:59:49.022Z,86.38
2023-04-13T12:02:29.808Z,86.40
2023-04-13T12:04:59.116Z,86.64
2023-04-13T12:07:27.974Z,86.10
2023-04-13T12:10:00.934Z,86.16
2023-04-13T12:17:48.374Z,85.78
2023-04-13T12:20:20.231Z,85.52
2023-04-13T12:22:57.775Z,85.50
2023-04-13T12:25:36.006Z,85.63
2023-04-13T12:28:05.292Z,85.27
2023-04-13T12:30:34.726Z,85.23
2023-04-13T12:33:19.453Z,84.72
2023-04-13T12:35:47.941Z,84.67
2023-04-13T12:38:18.571Z,84.19
2023-04-13T12:40:47.533Z,83.90
2023-04-13T12:43:16.347Z,83.61
2023-04-13T12:45:45.132Z,83.14
2023-04-13T12:48:13.907Z,83.51
2023-04-13T12:50:47.531Z,83.23
2023-04-13T12:53:16.516Z,82.96
2023-04-13T12:55:45.201Z,82.82
2023-04-13T12:58:14.091Z,82.81
2023-04-13T13:00:43.220Z,83.00
2023-04-13T13:03:31.658Z,82.94
2023-04-13T13:06:01.448Z,82.94
2023-04-13T13:08:32.032Z,83.10
2023-04-13T13:11:08.484Z,83.25
2023-04-13T13:13:37.949Z,82.94
2023-04-13T13:16:06.465Z,83.09
2023-04-13T13:18:50.300Z,83.33
2023-04-13T13:21:20.289Z,83.04
2023-04-13T13:23:48.773Z,83.16
2023-04-13T13:28:51.231Z,83.45
2023-04-13T13:31:20.510Z,83.50
2023-04-13T13:33:49.474Z,83.45
2023-04-13T13:36:18.352Z,83.53
2023-04-13T13:38:47.338Z,83.47
2023-04-13T13:41:15.919Z,83.25
2023-04-13T13:43:44.602Z,83.44
2023-04-13T13:46:13.485Z,83.60
2023-04-13T13:48:43.519Z,83.54
2023-04-13T13:51:32.016Z,83.56
2023-04-13T13:54:00.972Z,83.39
2023-04-13T13:56:29.740Z,83.50
2023-04-13T13:58:59.351Z,83.48
2023-04-13T14:01:28.547Z,83.76
2023-04-13T14:03:59.361Z,83.97
2023-04-13T14:06:33.085Z,83.93
2023-04-13T14:09:04.041Z,83.81
2023-04-13T14:11:34.664Z,83.73
2023-04-13T14:14:10.847Z,83.80
2023-04-13T14:16:44.309Z,83.75
2023-04-13T14:19:13.114Z,84.28
2023-04-13T14:21:42.818Z,84.50
2023-04-13T14:24:11.289Z,84.60
2023-04-13T14:26:40.284Z,84.55
2023-04-13T14:29:09.176Z,84.40
2023-04-13T14:31:38.007Z,84.51
2023-04-13T14:34:07.468Z,84.07
2023-04-13T14:36:36.169Z,84.05
2023-04-13T14:39:10.061Z,83.89
2023-04-13T14:41:39.662Z,83.52
2023-04-13T14:44:08.973Z,83.26
2023-04-13T14:46:38.117Z,83.33
2023-04-13T14:49:07.465Z,83.46
2023-04-13T14:51:36.394Z,83.20
2023-04-13T14:54:08.927Z,83.22
2023-04-13T14:56:37.411Z,83.37
2023-04-13T14:59:06.931Z,83.58
2023-04-13T15:01:41.428Z,83.83
2023-04-13T15:04:11.692Z,83.97
2023-04-13T15:06:40.447Z,84.19
2023-04-13T15:09:13.239Z,84.59
2023-04-13T15:11:44.375Z,84.56
2023-04-13T15:14:13.059Z,84.64
2023-04-13T15:16:41.650Z,84.83
2023-04-13T15:19:10.750Z,84.84
2023-04-13T15:21:39.322Z,85.13
2023-04-13T15:24:09.444Z,85.43
2023-04-13T15:26:39.776Z,85.63
2023-04-13T15:29:08.766Z,85.72
2023-04-13T15:31:38.201Z,85.61
2023-04-13T15:34:08.831Z,85.62
2023-04-13T15:36:38.213Z,85.87
2023-04-13T15:39:06.736Z,86.23
2023-04-13T15:41:35.873Z,86.37
2023-04-13T15:44:04.666Z,86.48
2023-04-13T15:46:33.490Z,86.49
2023-04-13T15:49:03.053Z,86.52
2023-04-13T15:51:32.497Z,86.72
2023-04-13T15:54:00.952Z,86.89
2023-04-13T15:56:29.831Z,87.05
2023-04-13T15:58:58.689Z,86.94
2023-04-13T16:01:27.751Z,87.52
2023-04-13T16:03:58.119Z,87.89
2023-04-13T16:06:28.464Z,88.44
2023-04-13T16:09:02.387Z,89.08
2023-04-13T16:11:32.484Z,89.40
2023-04-13T16:14:07.664Z,89.63
2023-04-13T16:16:44.590Z,89.91
2023-04-13T16:19:18.342Z,90.19
2023-04-13T16:21:47.529Z,90.27
2023-04-13T16:24:17.448Z,90.27
2023-04-13T16:26:46.348Z,90.65
2023-04-13T16:29:15.222Z,90.80
2023-04-13T16:31:47.198Z,90.60
2023-04-13T16:34:25.672Z,90.46
2023-04-13T16:36:56.618Z,90.61
2023-04-13T16:39:36.900Z,90.44
2023-04-13T16:42:06.151Z,90.68
2023-04-13T16:44:35.222Z,91.28
2023-04-13T16:47:04.876Z,91.79
2023-04-13T16:49:34.381Z,91.99
2023-04-13T16:52:04.943Z,92.09
2023-04-13T16:54:35.245Z,92.57
2023-04-13T16:57:04.173Z,93.56
2023-04-13T16:59:32.714Z,93.60
2023-04-13T17:02:01.783Z,94.00
2023-04-13T17:04:31.016Z,93.88
2023-04-13T17:07:02.825Z,94.07
2023-04-13T17:09:34.007Z,94.36
2023-04-13T17:12:02.791Z,94.57
2023-04-13T17:14:32.110Z,94.76
2023-04-13T17:17:00.616Z,94.80
2023-04-13T17:19:30.798Z,94.32
2023-04-13T17:21:59.788Z,94.46
2023-04-13T17:24:28.576Z,94.77
2023-04-13T17:26:58.182Z,95.07
2023-04-13T17:29:27.644Z,95.17
2023-04-13T17:31:58.285Z,95.52
2023-04-13T17:34:27.748Z,95.36
2023-04-13T17:36:58.221Z,95.26
2023-04-13T17:39:27.655Z,95.06
2023-04-13T17:41:58.793Z,95.11
2023-04-13T17:44:28.539Z,95.30
2023-04-13T17:46:57.225Z,95.44
2023-04-13T17:49:28.234Z,95.66
2023-04-13T17:51:59.320Z,95.93
2023-04-13T17:54:28.271Z,95.97
2023-04-13T17:56:58.391Z,95.49
2023-04-13T17:59:27.602Z,95.71
2023-04-13T18:01:57.828Z,96.07
2023-04-13T18:04:26.308Z,96.50
2023-04-13T18:06:57.022Z,96.55
2023-04-13T18:09:27.278Z,96.81
2023-04-13T18:11:57.882Z,97.49
2023-04-13T18:14:27.699Z,97.72
2023-04-13T18:16:56.228Z,97.82
2023-04-13T18:19:25.311Z,97.87
2023-04-13T18:21:59.182Z,97.74
2023-04-13T18:24:28.268Z,97.75
2023-04-13T18:26:57.159Z,98.38
2023-04-13T18:29:33.011Z,98.43
2023-04-13T18:32:01.626Z,98.65
2023-04-13T18:34:31.208Z,99.36
2023-04-13T18:36:59.490Z,99.86
2023-04-13T18:39:28.487Z,99.59
2023-04-13T18:41:56.971Z,99.95
2023-04-13T18:44:29.652Z,99.96
2023-04-13T18:46:58.958Z,99.87
2023-04-13T18:49:27.652Z,100.00
2023-04-13T18:51:56.970Z,100.00
2023-04-13T18:54:26.130Z,100.00
2023-04-13T18:56:54.705Z,100.00
2023-04-13T18:59:23.590Z,100.00
2023-04-13T19:01:53.076Z,100.00
2023-04-13T19:04:21.956Z,100.00
2023-04-13T19:06:51.106Z,100.00
2023-04-13T19:09:20.587Z,100.00
2023-04-13T19:11:53.435Z,100.00
2023-04-13T19:14:25.642Z,100.00
2023-04-13T19:16:56.776Z,100.00
2023-04-13T19:19:25.774Z,100.00
2023-04-13T19:21:55.253Z,100.00
2023-04-13T19:24:25.118Z,100.00
2023-04-13T19:26:56.034Z,100.00
2023-04-13T19:29:30.384Z,100.00
2023-04-13T19:31:59.214Z,100.00
2023-04-13T19:34:28.438Z,100.00
2023-04-13T19:36:57.134Z,100.00
2023-04-13T19:39:31.566Z,100.00
2023-04-13T19:42:01.052Z,100.00
2023-04-13T19:44:30.260Z,100.00
2023-04-13T19:47:03.836Z,100.00
2023-04-13T19:49:33.658Z,100.00
2023-04-13T19:52:02.362Z,100.00
2023-04-13T19:54:36.808Z,100.00
2023-04-13T19:57:05.448Z,100.00
2023-04-13T19:59:34.028Z,100.00
2023-04-13T20:02:02.652Z,100.00
2023-04-13T20:04:34.200Z,100.00
2023-04-13T20:07:04.600Z,100.00
2023-04-13T20:09:34.439Z,100.00
2023-04-13T20:12:07.799Z,100.00
2023-04-13T20:14:36.401Z,100.00
2023-04-13T20:17:05.013Z,100.00
2023-04-13T20:19:36.891Z,100.00
2023-04-13T20:22:05.620Z,100.00
2023-04-13T20:24:34.198Z,100.00
2023-04-13T20:27:02.986Z,100.00
2023-04-13T20:29:31.690Z,100.00
2023-04-13T20:32:03.837Z,100.00
2023-04-13T20:34:35.286Z,100.00
2023-04-13T20:37:03.735Z,100.00
2023-04-13T20:39:33.072Z,100.00
2023-04-13T20:42:04.915Z,100.00
2023-04-13T20:44:38.322Z,100.00
2023-04-13T20:47:06.852Z,100.00
2023-04-13T20:49:35.493Z,100.00
2023-04-13T20:52:04.104Z,100.00
2023-04-13T20:54:32.874Z,100.00
2023-04-13T20:57:01.785Z,100.00
2023-04-13T20:59:31.266Z,100.00
2023-04-13T21:02:00.335Z,100.00
2023-04-13T21:04:29.660Z,100.00
2023-04-13T21:06:58.347Z,100.00
2023-04-13T21:09:27.166Z,100.00
2023-04-13T21:11:57.250Z,100.00
2023-04-13T21:14:25.769Z,100.00
2023-04-13T21:16:55.150Z,100.00
2023-04-13T21:19:25.270Z,100.00
2023-04-13T21:21:54.858Z,100.00
2023-04-13T21:24:23.216Z,100.00
2023-04-13T21:26:51.921Z,100.00
2023-04-13T21:29:20.609Z,100.00
2023-04-13T21:31:49.694Z,100.00
2023-04-13T21:34:18.868Z,100.00
2023-04-13T21:39:21.900Z,100.00
2023-04-13T21:41:51.105Z,100.00
2023-04-13T21:44:29.260Z,100.00
2023-04-13T21:46:58.857Z,100.00
2023-04-13T21:49:27.824Z,100.00
2023-04-13T21:51:58.126Z,100.00
2023-04-13T21:54:26.951Z,100.00
2023-04-13T21:56:55.938Z,100.00
2023-04-13T21:59:27.518Z,100.00
2023-04-13T22:01:56.094Z,100.00
2023-04-13T22:04:25.256Z,100.00
2023-04-13T22:06:54.031Z,100.00
2023-04-13T22:09:23.078Z,100.00
2023-04-13T22:11:52.019Z,100.00
2023-04-13T22:14:20.516Z,100.00
2023-04-13T22:16:49.598Z,100.00
2023-04-13T22:19:18.485Z,100.00
2023-04-13T22:21:47.584Z,100.00
2023-04-13T22:24:18.110Z,100.00
2023-04-13T22:26:47.106Z,100.00
2023-04-13T22:29:16.096Z,100.00
2023-04-13T22:31:49.100Z,100.00
2023-04-13T22:34:18.602Z,100.00
2023-04-13T22:36:47.069Z,100.00
2023-04-13T22:39:15.542Z,100.00
2023-04-13T22:41:44.132Z,100.00
2023-04-13T22:44:12.710Z,100.00
2023-04-13T22:46:41.882Z,100.00
2023-04-13T22:49:11.338Z,100.00
2023-04-13T22:51:40.386Z,100.00
2023-04-13T22:54:09.091Z,100.00
2023-04-13T22:56:37.962Z,100.00
2023-04-13T22:59:06.363Z,100.00
2023-04-13T23:01:36.187Z,100.00
2023-04-13T23:04:05.886Z,100.00
2023-04-13T23:06:36.548Z,100.00
2023-04-13T23:09:07.961Z,100.00
2023-04-13T23:11:37.985Z,100.00
2023-04-13T23:14:07.697Z,100.00
2023-04-13T23:16:42.721Z,100.00
2023-04-13T23:19:11.412Z,100.00
2023-04-13T23:21:39.791Z,100.00
2023-04-13T23:24:08.170Z,100.00
2023-04-13T23:26:36.987Z,100.00
2023-04-13T23:29:05.508Z,100.00
2023-04-13T23:31:38.257Z,100.00
2023-04-13T23:34:07.431Z,100.00
2023-04-13T23:36:36.109Z,100.00
2023-04-13T23:39:06.845Z,100.00
2023-04-13T23:41:36.032Z,100.00
2023-04-13T23:44:04.415Z,100.00
2023-04-13T23:46:34.437Z,100.00
2023-04-13T23:49:02.843Z,100.00
2023-04-13T23:51:33.046Z,100.00
2023-04-13T23:54:01.726Z,100.00
2023-04-13T23:56:30.717Z,100.00
2023-04-13T23:58:59.943Z,100.00
